sensor_id;sensor_type;location;lat;lon;timestamp;temperature;humidity
54642;DHT22;40536;53.194;5.728;2023-01-19T00:01:26;2.90;99.90
54642;DHT22;40536;53.194;5.728;2023-01-19T00:03:52;2.90;99.90
54642;DHT22;40536;53.194;5.728;2023-01-19T00:06:18;2.90;99.90
54642;DHT22;40536;53.194;5.728;2023-01-19T00:08:44;2.90;99.90
54642;DHT22;40536;53.194;5.728;2023-01-19T00:11:11;2.80;99.90
54642;DHT22;40536;53.194;5.728;2023-01-19T00:13:38;2.80;99.90
54642;DHT22;40536;53.194;5.728;2023-01-19T00:16:07;2.80;99.90
54642;DHT22;40536;53.194;5.728;2023-01-19T00:18:33;2.70;99.90
54642;DHT22;40536;53.194;5.728;2023-01-19T00:20:58;4.10;99.90
54642;DHT22;40536;53.194;5.728;2023-01-19T00:23:25;4.40;99.90
54642;DHT22;40536;53.194;5.728;2023-01-19T00:25:50;2.80;99.90
54642;DHT22;40536;53.194;5.728;2023-01-19T00:28:17;2.80;99.90
54642;DHT22;40536;53.194;5.728;2023-01-19T00:30:43;2.90;99.90
54642;DHT22;40536;53.194;5.728;2023-01-19T00:33:10;4.40;99.90
54642;DHT22;40536;53.194;5.728;2023-01-19T00:35:39;3.00;99.90
54642;DHT22;40536;53.194;5.728;2023-01-19T00:38:06;3.70;99.90
54642;DHT22;40536;53.194;5.728;2023-01-19T00:40:32;3.10;99.90
54642;DHT22;40536;53.194;5.728;2023-01-19T00:42:58;3.10;99.90
54642;DHT22;40536;53.194;5.728;2023-01-19T00:45:24;4.80;99.90
54642;DHT22;40536;53.194;5.728;2023-01-19T00:47:50;4.60;99.90
54642;DHT22;40536;53.194;5.728;2023-01-19T00:50:25;3.20;99.90
54642;DHT22;40536;53.194;5.728;2023-01-19T00:52:53;3.30;99.90
54642;DHT22;40536;53.194;5.728;2023-01-19T00:55:19;3.30;99.90
54642;DHT22;40536;53.194;5.728;2023-01-19T00:57:45;4.30;99.90
54642;DHT22;40536;53.194;5.728;2023-01-19T01:00:14;4.80;99.90
54642;DHT22;40536;53.194;5.728;2023-01-19T01:02:42;3.50;99.90
54642;DHT22;40536;53.194;5.728;2023-01-19T01:05:08;3.50;99.90
54642;DHT22;40536;53.194;5.728;2023-01-19T01:07:35;3.50;99.90
54642;DHT22;40536;53.194;5.728;2023-01-19T01:12:39;3.40;99.90
54642;DHT22;40536;53.194;5.728;2023-01-19T01:15:07;3.40;99.90
54642;DHT22;40536;53.194;5.728;2023-01-19T01:17:33;3.40;99.90
54642;DHT22;40536;53.194;5.728;2023-01-19T01:19:59;3.40;99.90
54642;DHT22;40536;53.194;5.728;2023-01-19T01:22:25;4.50;99.90
54642;DHT22;40536;53.194;5.728;2023-01-19T01:24:50;4.80;99.90
54642;DHT22;40536;53.194;5.728;2023-01-19T01:27:16;4.70;99.90
54642;DHT22;40536;53.194;5.728;2023-01-19T01:29:42;4.60;99.90
54642;DHT22;40536;53.194;5.728;2023-01-19T01:32:12;3.50;99.90
54642;DHT22;40536;53.194;5.728;2023-01-19T01:34:38;3.50;99.90
54642;DHT22;40536;53.194;5.728;2023-01-19T01:37:04;4.70;99.90
54642;DHT22;40536;53.194;5.728;2023-01-19T01:39:35;3.60;99.90
54642;DHT22;40536;53.194;5.728;2023-01-19T01:42:01;3.60;99.90
54642;DHT22;40536;53.194;5.728;2023-01-19T01:44:50;4.30;99.90
54642;DHT22;40536;53.194;5.728;2023-01-19T01:47:21;3.70;99.90
54642;DHT22;40536;53.194;5.728;2023-01-19T01:49:51;3.60;99.90
54642;DHT22;40536;53.194;5.728;2023-01-19T01:52:19;3.60;99.90
54642;DHT22;40536;53.194;5.728;2023-01-19T01:54:47;3.60;99.90
54642;DHT22;40536;53.194;5.728;2023-01-19T01:57:13;4.70;99.90
54642;DHT22;40536;53.194;5.728;2023-01-19T01:59:42;3.60;99.90
54642;DHT22;40536;53.194;5.728;2023-01-19T02:02:15;3.60;99.90
54642;DHT22;40536;53.194;5.728;2023-01-19T02:05:06;3.50;99.90
54642;DHT22;40536;53.194;5.728;2023-01-19T02:10:30;3.50;99.90
54642;DHT22;40536;53.194;5.728;2023-01-19T02:13:15;3.40;99.90
54642;DHT22;40536;53.194;5.728;2023-01-19T02:15:48;3.30;99.90
54642;DHT22;40536;53.194;5.728;2023-01-19T02:18:14;3.30;99.90
54642;DHT22;40536;53.194;5.728;2023-01-19T02:20:46;3.30;99.90
54642;DHT22;40536;53.194;5.728;2023-01-19T02:25:49;3.30;99.90
54642;DHT22;40536;53.194;5.728;2023-01-19T02:28:15;3.50;99.90
54642;DHT22;40536;53.194;5.728;2023-01-19T02:30:42;3.40;99.90
54642;DHT22;40536;53.194;5.728;2023-01-19T02:33:08;3.60;99.90
54642;DHT22;40536;53.194;5.728;2023-01-19T02:35:35;3.70;99.90
54642;DHT22;40536;53.194;5.728;2023-01-19T02:38:03;3.80;99.90
54642;DHT22;40536;53.194;5.728;2023-01-19T02:40:29;3.90;99.90
54642;DHT22;40536;53.194;5.728;2023-01-19T02:42:57;3.90;99.90
54642;DHT22;40536;53.194;5.728;2023-01-19T02:45:25;5.50;99.90
54642;DHT22;40536;53.194;5.728;2023-01-19T02:47:51;4.00;99.90
54642;DHT22;40536;53.194;5.728;2023-01-19T02:55:50;3.90;99.90
54642;DHT22;40536;53.194;5.728;2023-01-19T02:58:26;3.90;99.90
54642;DHT22;40536;53.194;5.728;2023-01-19T03:01:22;3.80;99.90
54642;DHT22;40536;53.194;5.728;2023-01-19T03:03:57;3.90;99.90
54642;DHT22;40536;53.194;5.728;2023-01-19T03:06:32;3.90;99.90
54642;DHT22;40536;53.194;5.728;2023-01-19T03:09:02;5.10;99.90
54642;DHT22;40536;53.194;5.728;2023-01-19T03:11:33;3.90;99.90
54642;DHT22;40536;53.194;5.728;2023-01-19T03:14:13;3.90;99.90
54642;DHT22;40536;53.194;5.728;2023-01-19T03:16:46;3.90;99.90
54642;DHT22;40536;53.194;5.728;2023-01-19T03:19:36;3.90;99.90
54642;DHT22;40536;53.194;5.728;2023-01-19T03:22:08;3.90;99.90
54642;DHT22;40536;53.194;5.728;2023-01-19T03:24:38;4.00;99.90
54642;DHT22;40536;53.194;5.728;2023-01-19T03:27:15;4.00;99.90
54642;DHT22;40536;53.194;5.728;2023-01-19T03:29:47;4.10;99.90
54642;DHT22;40536;53.194;5.728;2023-01-19T03:32:17;5.00;99.90
54642;DHT22;40536;53.194;5.728;2023-01-19T03:34:46;4.10;99.90
54642;DHT22;40536;53.194;5.728;2023-01-19T03:37:15;4.10;99.90
54642;DHT22;40536;53.194;5.728;2023-01-19T03:39:42;4.10;99.90
54642;DHT22;40536;53.194;5.728;2023-01-19T03:42:11;4.10;99.90
54642;DHT22;40536;53.194;5.728;2023-01-19T03:44:39;4.10;99.90
54642;DHT22;40536;53.194;5.728;2023-01-19T03:47:06;4.10;99.90
54642;DHT22;40536;53.194;5.728;2023-01-19T03:49:34;4.10;99.90
54642;DHT22;40536;53.194;5.728;2023-01-19T03:52:00;4.10;99.90
54642;DHT22;40536;53.194;5.728;2023-01-19T03:54:26;4.10;99.90
54642;DHT22;40536;53.194;5.728;2023-01-19T03:56:52;5.10;99.90
54642;DHT22;40536;53.194;5.728;2023-01-19T03:59:18;4.20;99.90
54642;DHT22;40536;53.194;5.728;2023-01-19T04:01:46;5.40;99.90
54642;DHT22;40536;53.194;5.728;2023-01-19T04:04:12;4.60;99.90
54642;DHT22;40536;53.194;5.728;2023-01-19T04:06:38;4.20;99.90
54642;DHT22;40536;53.194;5.728;2023-01-19T04:09:04;5.00;99.90
54642;DHT22;40536;53.194;5.728;2023-01-19T04:11:30;4.20;99.90
54642;DHT22;40536;53.194;5.728;2023-01-19T04:13:56;4.20;99.90
54642;DHT22;40536;53.194;5.728;2023-01-19T04:16:21;4.20;99.90
54642;DHT22;40536;53.194;5.728;2023-01-19T04:18:48;5.60;99.90
54642;DHT22;40536;53.194;5.728;2023-01-19T04:21:13;4.20;99.90
54642;DHT22;40536;53.194;5.728;2023-01-19T04:23:39;5.10;99.90
54642;DHT22;40536;53.194;5.728;2023-01-19T04:26:06;4.10;99.90
54642;DHT22;40536;53.194;5.728;2023-01-19T04:28:33;4.00;99.90
54642;DHT22;40536;53.194;5.728;2023-01-19T04:30:59;4.00;99.90
54642;DHT22;40536;53.194;5.728;2023-01-19T04:33:26;4.00;99.90
54642;DHT22;40536;53.194;5.728;2023-01-19T04:35:52;5.10;99.90
54642;DHT22;40536;53.194;5.728;2023-01-19T04:38:19;4.40;99.90
54642;DHT22;40536;53.194;5.728;2023-01-19T04:40:45;3.90;99.90
54642;DHT22;40536;53.194;5.728;2023-01-19T04:43:11;3.90;99.90
54642;DHT22;40536;53.194;5.728;2023-01-19T04:45:37;3.90;99.90
54642;DHT22;40536;53.194;5.728;2023-01-19T04:48:03;3.90;99.90
54642;DHT22;40536;53.194;5.728;2023-01-19T04:50:30;3.90;99.90
54642;DHT22;40536;53.194;5.728;2023-01-19T04:52:56;3.90;99.90
54642;DHT22;40536;53.194;5.728;2023-01-19T04:55:22;3.90;99.90
54642;DHT22;40536;53.194;5.728;2023-01-19T04:57:47;3.90;99.90
54642;DHT22;40536;53.194;5.728;2023-01-19T05:00:13;3.90;99.90
54642;DHT22;40536;53.194;5.728;2023-01-19T05:02:39;3.80;99.90
54642;DHT22;40536;53.194;5.728;2023-01-19T05:05:08;3.80;99.90
54642;DHT22;40536;53.194;5.728;2023-01-19T05:07:34;3.80;99.90
54642;DHT22;40536;53.194;5.728;2023-01-19T05:09:59;3.70;99.90
54642;DHT22;40536;53.194;5.728;2023-01-19T05:12:25;3.70;99.90
54642;DHT22;40536;53.194;5.728;2023-01-19T05:14:51;3.70;99.90
54642;DHT22;40536;53.194;5.728;2023-01-19T05:17:16;3.70;99.90
54642;DHT22;40536;53.194;5.728;2023-01-19T05:19:42;3.70;99.90
54642;DHT22;40536;53.194;5.728;2023-01-19T05:22:08;3.70;99.90
54642;DHT22;40536;53.194;5.728;2023-01-19T05:24:33;3.70;99.90
54642;DHT22;40536;53.194;5.728;2023-01-19T05:27:00;5.00;99.90
54642;DHT22;40536;53.194;5.728;2023-01-19T05:29:26;3.90;99.90
54642;DHT22;40536;53.194;5.728;2023-01-19T05:31:51;4.70;99.90
54642;DHT22;40536;53.194;5.728;2023-01-19T05:34:17;4.00;99.90
54642;DHT22;40536;53.194;5.728;2023-01-19T05:36:43;5.50;99.90
54642;DHT22;40536;53.194;5.728;2023-01-19T05:39:09;4.10;99.90
54642;DHT22;40536;53.194;5.728;2023-01-19T05:41:35;4.10;99.90
54642;DHT22;40536;53.194;5.728;2023-01-19T05:44:01;4.80;99.90
54642;DHT22;40536;53.194;5.728;2023-01-19T05:46:26;4.10;99.90
54642;DHT22;40536;53.194;5.728;2023-01-19T05:48:52;4.10;99.90
54642;DHT22;40536;53.194;5.728;2023-01-19T05:51:18;4.10;99.90
54642;DHT22;40536;53.194;5.728;2023-01-19T05:53:43;4.10;99.90
54642;DHT22;40536;53.194;5.728;2023-01-19T05:56:10;4.10;99.90
54642;DHT22;40536;53.194;5.728;2023-01-19T05:58:36;4.10;99.90
54642;DHT22;40536;53.194;5.728;2023-01-19T06:01:05;4.20;99.90
54642;DHT22;40536;53.194;5.728;2023-01-19T06:03:32;4.30;99.90
54642;DHT22;40536;53.194;5.728;2023-01-19T06:05:58;4.30;99.90
54642;DHT22;40536;53.194;5.728;2023-01-19T06:08:24;5.30;99.90
54642;DHT22;40536;53.194;5.728;2023-01-19T06:10:50;4.20;99.90
54642;DHT22;40536;53.194;5.728;2023-01-19T06:13:16;4.10;99.90
54642;DHT22;40536;53.194;5.728;2023-01-19T06:15:42;4.00;99.90
54642;DHT22;40536;53.194;5.728;2023-01-19T06:18:12;5.50;99.90
54642;DHT22;40536;53.194;5.728;2023-01-19T06:20:41;5.30;99.90
54642;DHT22;40536;53.194;5.728;2023-01-19T06:23:07;3.90;99.90
54642;DHT22;40536;53.194;5.728;2023-01-19T06:25:33;3.80;99.90
54642;DHT22;40536;53.194;5.728;2023-01-19T06:27:58;3.80;99.90
54642;DHT22;40536;53.194;5.728;2023-01-19T06:30:24;3.80;99.90
54642;DHT22;40536;53.194;5.728;2023-01-19T06:32:52;3.80;99.90
54642;DHT22;40536;53.194;5.728;2023-01-19T06:35:17;3.70;99.90
54642;DHT22;40536;53.194;5.728;2023-01-19T06:37:43;3.70;99.90
54642;DHT22;40536;53.194;5.728;2023-01-19T06:40:09;3.70;99.90
54642;DHT22;40536;53.194;5.728;2023-01-19T06:42:36;3.70;99.90
54642;DHT22;40536;53.194;5.728;2023-01-19T06:45:02;4.70;99.90
54642;DHT22;40536;53.194;5.728;2023-01-19T06:47:28;3.80;99.90
54642;DHT22;40536;53.194;5.728;2023-01-19T06:49:53;3.80;99.90
54642;DHT22;40536;53.194;5.728;2023-01-19T06:52:19;3.80;99.90
54642;DHT22;40536;53.194;5.728;2023-01-19T06:54:45;3.90;99.90
54642;DHT22;40536;53.194;5.728;2023-01-19T06:57:12;3.90;99.90
54642;DHT22;40536;53.194;5.728;2023-01-19T06:59:38;4.00;99.90
54642;DHT22;40536;53.194;5.728;2023-01-19T07:02:04;4.10;99.90
54642;DHT22;40536;53.194;5.728;2023-01-19T07:04:30;4.10;99.90
54642;DHT22;40536;53.194;5.728;2023-01-19T07:06:56;5.50;99.90
54642;DHT22;40536;53.194;5.728;2023-01-19T07:09:22;4.20;99.90
54642;DHT22;40536;53.194;5.728;2023-01-19T07:11:49;4.70;99.90
54642;DHT22;40536;53.194;5.728;2023-01-19T07:14:15;4.20;99.90
54642;DHT22;40536;53.194;5.728;2023-01-19T07:16:41;4.30;99.90
54642;DHT22;40536;53.194;5.728;2023-01-19T07:19:07;5.20;99.90
54642;DHT22;40536;53.194;5.728;2023-01-19T07:21:35;5.20;99.90
54642;DHT22;40536;53.194;5.728;2023-01-19T07:24:01;4.00;99.90
54642;DHT22;40536;53.194;5.728;2023-01-19T07:26:26;5.30;99.90
54642;DHT22;40536;53.194;5.728;2023-01-19T07:28:52;5.40;99.90
54642;DHT22;40536;53.194;5.728;2023-01-19T07:31:18;5.80;99.90
54642;DHT22;40536;53.194;5.728;2023-01-19T07:33:45;4.00;99.90
54642;DHT22;40536;53.194;5.728;2023-01-19T07:36:11;4.00;99.90
54642;DHT22;40536;53.194;5.728;2023-01-19T07:38:36;4.00;99.90
54642;DHT22;40536;53.194;5.728;2023-01-19T07:41:03;4.00;99.90
54642;DHT22;40536;53.194;5.728;2023-01-19T07:43:29;4.00;99.90
54642;DHT22;40536;53.194;5.728;2023-01-19T07:45:59;4.00;99.90
54642;DHT22;40536;53.194;5.728;2023-01-19T07:48:26;5.50;99.90
54642;DHT22;40536;53.194;5.728;2023-01-19T07:50:51;3.90;99.90
54642;DHT22;40536;53.194;5.728;2023-01-19T07:53:18;3.90;99.90
54642;DHT22;40536;53.194;5.728;2023-01-19T07:55:43;3.90;99.90
54642;DHT22;40536;53.194;5.728;2023-01-19T07:58:09;3.90;99.90
54642;DHT22;40536;53.194;5.728;2023-01-19T08:00:36;3.90;99.90
54642;DHT22;40536;53.194;5.728;2023-01-19T08:03:03;3.80;99.90
54642;DHT22;40536;53.194;5.728;2023-01-19T08:05:30;3.80;99.90
54642;DHT22;40536;53.194;5.728;2023-01-19T08:07:57;3.80;99.90
54642;DHT22;40536;53.194;5.728;2023-01-19T08:10:27;5.10;99.90
54642;DHT22;40536;53.194;5.728;2023-01-19T08:12:53;4.10;99.90
54642;DHT22;40536;53.194;5.728;2023-01-19T08:15:19;3.60;99.90
54642;DHT22;40536;53.194;5.728;2023-01-19T08:17:56;3.70;99.90
54642;DHT22;40536;53.194;5.728;2023-01-19T08:20:23;3.70;99.90
54642;DHT22;40536;53.194;5.728;2023-01-19T08:22:49;4.80;99.90
54642;DHT22;40536;53.194;5.728;2023-01-19T08:25:15;3.70;99.90
54642;DHT22;40536;53.194;5.728;2023-01-19T08:27:41;4.70;99.90
54642;DHT22;40536;53.194;5.728;2023-01-19T08:30:07;3.70;99.90
54642;DHT22;40536;53.194;5.728;2023-01-19T08:32:33;3.70;99.90
54642;DHT22;40536;53.194;5.728;2023-01-19T08:34:58;3.70;99.90
54642;DHT22;40536;53.194;5.728;2023-01-19T08:37:24;3.70;99.90
54642;DHT22;40536;53.194;5.728;2023-01-19T08:39:50;4.60;99.90
54642;DHT22;40536;53.194;5.728;2023-01-19T08:42:18;3.60;99.90
54642;DHT22;40536;53.194;5.728;2023-01-19T08:44:43;5.00;99.90
54642;DHT22;40536;53.194;5.728;2023-01-19T08:47:09;3.70;99.90
54642;DHT22;40536;53.194;5.728;2023-01-19T08:49:34;3.60;99.90
54642;DHT22;40536;53.194;5.728;2023-01-19T08:52:00;3.50;99.90
54642;DHT22;40536;53.194;5.728;2023-01-19T08:54:27;3.50;99.90
54642;DHT22;40536;53.194;5.728;2023-01-19T08:56:53;3.50;99.90
54642;DHT22;40536;53.194;5.728;2023-01-19T08:59:18;4.50;99.90
54642;DHT22;40536;53.194;5.728;2023-01-19T09:01:44;3.60;99.90
54642;DHT22;40536;53.194;5.728;2023-01-19T09:04:10;3.70;99.90
54642;DHT22;40536;53.194;5.728;2023-01-19T09:06:35;5.00;99.90
54642;DHT22;40536;53.194;5.728;2023-01-19T09:09:01;4.00;99.90
54642;DHT22;40536;53.194;5.728;2023-01-19T09:11:27;5.20;99.90
54642;DHT22;40536;53.194;5.728;2023-01-19T09:13:53;4.20;99.90
54642;DHT22;40536;53.194;5.728;2023-01-19T09:16:19;4.30;99.90
54642;DHT22;40536;53.194;5.728;2023-01-19T09:18:44;4.30;99.90
54642;DHT22;40536;53.194;5.728;2023-01-19T09:21:10;4.30;99.90
54642;DHT22;40536;53.194;5.728;2023-01-19T09:23:36;4.80;99.90
54642;DHT22;40536;53.194;5.728;2023-01-19T09:26:03;4.30;99.90
54642;DHT22;40536;53.194;5.728;2023-01-19T09:28:29;4.20;99.90
54642;DHT22;40536;53.194;5.728;2023-01-19T09:30:55;5.90;99.90
54642;DHT22;40536;53.194;5.728;2023-01-19T09:33:21;4.30;99.90
54642;DHT22;40536;53.194;5.728;2023-01-19T09:35:48;5.30;99.90
54642;DHT22;40536;53.194;5.728;2023-01-19T09:38:15;4.30;99.90
54642;DHT22;40536;53.194;5.728;2023-01-19T09:43:31;4.30;99.90
54642;DHT22;40536;53.194;5.728;2023-01-19T09:46:00;4.30;99.90
54642;DHT22;40536;53.194;5.728;2023-01-19T09:51:19;4.40;99.90
54642;DHT22;40536;53.194;5.728;2023-01-19T09:54:12;4.40;99.90
54642;DHT22;40536;53.194;5.728;2023-01-19T09:56:39;4.40;99.90
54642;DHT22;40536;53.194;5.728;2023-01-19T09:59:31;4.50;99.90
54642;DHT22;40536;53.194;5.728;2023-01-19T10:05:16;4.70;99.90
54642;DHT22;40536;53.194;5.728;2023-01-19T10:10:54;4.80;99.90
54642;DHT22;40536;53.194;5.728;2023-01-19T10:16:23;4.90;99.90
54642;DHT22;40536;53.194;5.728;2023-01-19T10:18:55;4.90;99.90
54642;DHT22;40536;53.194;5.728;2023-01-19T10:21:41;4.90;99.90
54642;DHT22;40536;53.194;5.728;2023-01-19T10:24:27;4.90;99.90
54642;DHT22;40536;53.194;5.728;2023-01-19T10:26:55;5.30;99.90
54642;DHT22;40536;53.194;5.728;2023-01-19T10:29:27;4.90;99.90
54642;DHT22;40536;53.194;5.728;2023-01-19T10:32:10;5.50;99.90
54642;DHT22;40536;53.194;5.728;2023-01-19T10:34:36;4.90;99.90
54642;DHT22;40536;53.194;5.728;2023-01-19T10:39:54;5.00;99.90
54642;DHT22;40536;53.194;5.728;2023-01-19T10:42:20;6.30;99.90
54642;DHT22;40536;53.194;5.728;2023-01-19T10:44:46;5.10;99.90
54642;DHT22;40536;53.194;5.728;2023-01-19T10:47:32;5.10;99.90
54642;DHT22;40536;53.194;5.728;2023-01-19T10:49:58;5.20;99.90
54642;DHT22;40536;53.194;5.728;2023-01-19T10:52:34;5.30;99.90
54642;DHT22;40536;53.194;5.728;2023-01-19T10:55:04;5.40;99.90
54642;DHT22;40536;53.194;5.728;2023-01-19T10:57:34;5.50;99.90
54642;DHT22;40536;53.194;5.728;2023-01-19T11:00:06;6.50;99.90
54642;DHT22;40536;53.194;5.728;2023-01-19T11:02:32;5.60;99.90
54642;DHT22;40536;53.194;5.728;2023-01-19T11:05:00;5.60;99.90
54642;DHT22;40536;53.194;5.728;2023-01-19T11:07:28;5.60;99.90
54642;DHT22;40536;53.194;5.728;2023-01-19T11:12:58;5.80;99.90
54642;DHT22;40536;53.194;5.728;2023-01-19T11:15:39;5.90;99.90
54642;DHT22;40536;53.194;5.728;2023-01-19T11:18:05;7.20;99.90
54642;DHT22;40536;53.194;5.728;2023-01-19T11:20:50;6.30;99.90
54642;DHT22;40536;53.194;5.728;2023-01-19T11:25:50;6.20;99.90
54642;DHT22;40536;53.194;5.728;2023-01-19T11:28:29;6.40;99.90
54642;DHT22;40536;53.194;5.728;2023-01-19T11:38:49;6.10;99.90
54642;DHT22;40536;53.194;5.728;2023-01-19T11:41:33;5.90;99.90
54642;DHT22;40536;53.194;5.728;2023-01-19T11:44:21;5.80;99.90
54642;DHT22;40536;53.194;5.728;2023-01-19T11:46:53;6.90;99.90
54642;DHT22;40536;53.194;5.728;2023-01-19T11:49:35;7.00;99.90
54642;DHT22;40536;53.194;5.728;2023-01-19T11:52:21;5.60;99.90
54642;DHT22;40536;53.194;5.728;2023-01-19T11:57:47;5.60;99.90
54642;DHT22;40536;53.194;5.728;2023-01-19T12:00:53;6.80;99.90
54642;DHT22;40536;53.194;5.728;2023-01-19T12:03:26;5.40;99.90
54642;DHT22;40536;53.194;5.728;2023-01-19T12:05:59;5.30;99.90
54642;DHT22;40536;53.194;5.728;2023-01-19T12:08:42;5.30;99.90
54642;DHT22;40536;53.194;5.728;2023-01-19T12:11:14;6.80;99.90
54642;DHT22;40536;53.194;5.728;2023-01-19T12:13:41;5.30;99.90
54642;DHT22;40536;53.194;5.728;2023-01-19T12:16:20;5.30;99.90
54642;DHT22;40536;53.194;5.728;2023-01-19T12:21:21;6.30;99.90
54642;DHT22;40536;53.194;5.728;2023-01-19T12:24:26;5.20;99.90
54642;DHT22;40536;53.194;5.728;2023-01-19T12:26:59;5.20;99.90
54642;DHT22;40536;53.194;5.728;2023-01-19T12:29:33;6.30;99.90
54642;DHT22;40536;53.194;5.728;2023-01-19T12:40:22;6.40;99.90
54642;DHT22;40536;53.194;5.728;2023-01-19T12:42:59;5.50;99.90
54642;DHT22;40536;53.194;5.728;2023-01-19T12:45:36;5.60;99.90
54642;DHT22;40536;53.194;5.728;2023-01-19T12:48:04;5.60;99.90
54642;DHT22;40536;53.194;5.728;2023-01-19T12:50:35;5.60;99.90
54642;DHT22;40536;53.194;5.728;2023-01-19T12:53:03;6.00;99.90
54642;DHT22;40536;53.194;5.728;2023-01-19T12:55:36;5.50;99.90
54642;DHT22;40536;53.194;5.728;2023-01-19T12:58:13;5.40;99.90
54642;DHT22;40536;53.194;5.728;2023-01-19T13:00:43;5.60;99.90
54642;DHT22;40536;53.194;5.728;2023-01-19T13:23:55;5.70;99.90
54642;DHT22;40536;53.194;5.728;2023-01-19T13:26:23;6.30;99.90
54642;DHT22;40536;53.194;5.728;2023-01-19T13:28:55;6.70;99.90
54642;DHT22;40536;53.194;5.728;2023-01-19T13:31:22;6.30;99.90
54642;DHT22;40536;53.194;5.728;2023-01-19T13:33:54;6.00;99.90
54642;DHT22;40536;53.194;5.728;2023-01-19T13:38:51;6.00;99.90
54642;DHT22;40536;53.194;5.728;2023-01-19T13:41:21;5.30;99.90
54642;DHT22;40536;53.194;5.728;2023-01-19T13:43:54;5.70;99.90
54642;DHT22;40536;53.194;5.728;2023-01-19T13:46:21;5.80;99.90
54642;DHT22;40536;53.194;5.728;2023-01-19T13:49:00;5.30;99.90
54642;DHT22;40536;53.194;5.728;2023-01-19T13:51:26;5.20;99.90
54642;DHT22;40536;53.194;5.728;2023-01-19T13:53:59;5.20;99.90
54642;DHT22;40536;53.194;5.728;2023-01-19T13:56:28;6.60;99.90
54642;DHT22;40536;53.194;5.728;2023-01-19T13:59:10;6.10;99.90
54642;DHT22;40536;53.194;5.728;2023-01-19T14:01:39;6.60;99.90
54642;DHT22;40536;53.194;5.728;2023-01-19T14:04:05;6.60;99.90
54642;DHT22;40536;53.194;5.728;2023-01-19T14:06:37;5.80;99.90
54642;DHT22;40536;53.194;5.728;2023-01-19T14:09:04;6.40;99.90
54642;DHT22;40536;53.194;5.728;2023-01-19T14:11:30;5.30;99.90
54642;DHT22;40536;53.194;5.728;2023-01-19T14:13:55;6.70;99.90
54642;DHT22;40536;53.194;5.728;2023-01-19T14:16:21;5.50;99.90
54642;DHT22;40536;53.194;5.728;2023-01-19T14:19:00;6.90;99.90
54642;DHT22;40536;53.194;5.728;2023-01-19T14:21:38;5.40;99.90
54642;DHT22;40536;53.194;5.728;2023-01-19T14:31:50;5.60;99.90
54642;DHT22;40536;53.194;5.728;2023-01-19T14:34:37;6.80;99.90
54642;DHT22;40536;53.194;5.728;2023-01-19T14:37:24;5.50;99.90
54642;DHT22;40536;53.194;5.728;2023-01-19T14:40:19;6.30;99.90
54642;DHT22;40536;53.194;5.728;2023-01-19T14:42:58;5.40;99.90
54642;DHT22;40536;53.194;5.728;2023-01-19T14:45:36;5.20;99.90
54642;DHT22;40536;53.194;5.728;2023-01-19T14:48:16;5.10;99.90
54642;DHT22;40536;53.194;5.728;2023-01-19T14:50:42;5.00;99.90
54642;DHT22;40536;53.194;5.728;2023-01-19T14:53:17;4.90;99.90
54642;DHT22;40536;53.194;5.728;2023-01-19T14:55:46;4.80;99.90
54642;DHT22;40536;53.194;5.728;2023-01-19T14:58:14;6.00;99.90
54642;DHT22;40536;53.194;5.728;2023-01-19T15:00:41;4.60;99.90
54642;DHT22;40536;53.194;5.728;2023-01-19T15:03:07;6.10;99.90
54642;DHT22;40536;53.194;5.728;2023-01-19T15:05:38;4.50;99.90
54642;DHT22;40536;53.194;5.728;2023-01-19T15:08:05;4.40;99.90
54642;DHT22;40536;53.194;5.728;2023-01-19T15:10:31;4.40;99.90
54642;DHT22;40536;53.194;5.728;2023-01-19T15:12:57;4.40;99.90
54642;DHT22;40536;53.194;5.728;2023-01-19T15:15:29;4.60;99.90
54642;DHT22;40536;53.194;5.728;2023-01-19T15:17:56;4.30;99.90
54642;DHT22;40536;53.194;5.728;2023-01-19T15:20:22;5.40;99.90
54642;DHT22;40536;53.194;5.728;2023-01-19T15:22:48;4.10;99.90
54642;DHT22;40536;53.194;5.728;2023-01-19T15:25:16;4.70;99.90
54642;DHT22;40536;53.194;5.728;2023-01-19T15:27:43;4.00;99.90
54642;DHT22;40536;53.194;5.728;2023-01-19T15:30:35;5.30;99.90
54642;DHT22;40536;53.194;5.728;2023-01-19T15:33:01;3.70;99.90
54642;DHT22;40536;53.194;5.728;2023-01-19T15:35:26;3.60;99.90
54642;DHT22;40536;53.194;5.728;2023-01-19T15:37:52;4.60;99.90
54642;DHT22;40536;53.194;5.728;2023-01-19T15:40:19;3.50;99.90
54642;DHT22;40536;53.194;5.728;2023-01-19T15:42:45;3.40;99.90
54642;DHT22;40536;53.194;5.728;2023-01-19T15:45:36;4.20;99.90
54642;DHT22;40536;53.194;5.728;2023-01-19T15:48:07;3.20;99.90
54642;DHT22;40536;53.194;5.728;2023-01-19T15:50:37;4.90;99.90
54642;DHT22;40536;53.194;5.728;2023-01-19T15:53:03;4.80;99.90
54642;DHT22;40536;53.194;5.728;2023-01-19T15:55:29;3.70;99.90
54642;DHT22;40536;53.194;5.728;2023-01-19T15:57:55;2.90;99.90
54642;DHT22;40536;53.194;5.728;2023-01-19T16:00:30;2.80;99.90
54642;DHT22;40536;53.194;5.728;2023-01-19T16:02:57;2.80;99.90
54642;DHT22;40536;53.194;5.728;2023-01-19T16:05:23;2.70;99.90
54642;DHT22;40536;53.194;5.728;2023-01-19T16:07:49;2.60;99.90
54642;DHT22;40536;53.194;5.728;2023-01-19T16:10:16;4.10;99.90
54642;DHT22;40536;53.194;5.728;2023-01-19T16:12:45;2.60;99.90
54642;DHT22;40536;53.194;5.728;2023-01-19T16:15:12;2.50;99.90
54642;DHT22;40536;53.194;5.728;2023-01-19T16:17:38;2.50;99.90
54642;DHT22;40536;53.194;5.728;2023-01-19T16:20:04;2.40;99.90
54642;DHT22;40536;53.194;5.728;2023-01-19T16:22:45;2.40;99.90
54642;DHT22;40536;53.194;5.728;2023-01-19T16:25:11;3.50;99.90
54642;DHT22;40536;53.194;5.728;2023-01-19T16:27:36;2.30;99.90
54642;DHT22;40536;53.194;5.728;2023-01-19T16:30:02;2.30;99.90
54642;DHT22;40536;53.194;5.728;2023-01-19T16:32:33;2.30;99.90
54642;DHT22;40536;53.194;5.728;2023-01-19T16:34:59;2.30;99.90
54642;DHT22;40536;53.194;5.728;2023-01-19T16:37:25;2.30;99.90
54642;DHT22;40536;53.194;5.728;2023-01-19T16:39:50;3.80;99.90
54642;DHT22;40536;53.194;5.728;2023-01-19T16:42:16;2.30;99.90
54642;DHT22;40536;53.194;5.728;2023-01-19T16:44:42;3.90;99.90
54642;DHT22;40536;53.194;5.728;2023-01-19T16:47:08;2.30;99.90
54642;DHT22;40536;53.194;5.728;2023-01-19T16:49:33;2.20;99.90
54642;DHT22;40536;53.194;5.728;2023-01-19T16:51:59;2.20;99.90
54642;DHT22;40536;53.194;5.728;2023-01-19T16:54:25;3.90;99.90
54642;DHT22;40536;53.194;5.728;2023-01-19T16:56:53;2.20;99.90
54642;DHT22;40536;53.194;5.728;2023-01-19T16:59:19;2.10;99.90
54642;DHT22;40536;53.194;5.728;2023-01-19T17:01:46;2.10;99.90
54642;DHT22;40536;53.194;5.728;2023-01-19T17:04:17;2.10;99.90
54642;DHT22;40536;53.194;5.728;2023-01-19T17:06:44;2.10;99.90
54642;DHT22;40536;53.194;5.728;2023-01-19T17:09:11;3.80;99.90
54642;DHT22;40536;53.194;5.728;2023-01-19T17:11:37;2.00;99.90
54642;DHT22;40536;53.194;5.728;2023-01-19T17:14:10;2.10;99.90
54642;DHT22;40536;53.194;5.728;2023-01-19T17:16:36;2.00;99.90
54642;DHT22;40536;53.194;5.728;2023-01-19T17:19:04;2.00;99.90
54642;DHT22;40536;53.194;5.728;2023-01-19T17:21:30;1.90;99.90
54642;DHT22;40536;53.194;5.728;2023-01-19T17:23:57;1.90;99.90
54642;DHT22;40536;53.194;5.728;2023-01-19T17:26:24;1.80;99.90